createdAt,value
2019-06-18T00:00:03.984Z,18.84
2019-06-18T00:01:05.827Z,18.89
2019-06-18T00:02:05.717Z,18.9
2019-06-18T00:03:03.318Z,18.8
2019-06-18T00:04:05.358Z,18.88
2019-06-18T00:05:05.038Z,18.88
2019-06-18T00:06:05.314Z,18.86
2019-06-18T00:07:03.524Z,18.78
2019-06-18T00:08:05.770Z,18.83
2019-06-18T00:09:05.442Z,18.66
2019-06-18T00:10:04.071Z,18.83
2019-06-18T00:11:03.899Z,18.86
2019-06-18T00:12:05.399Z,18.8
2019-06-18T00:13:05.632Z,18.74
2019-06-18T00:14:05.411Z,18.71
2019-06-18T00:15:05.600Z,18.63
2019-06-18T00:16:03.940Z,18.62
2019-06-18T00:17:05.734Z,18.59
2019-06-18T00:18:04.221Z,18.58
2019-06-18T00:19:04.320Z,18.49
2019-06-18T00:20:03.558Z,18.44
2019-06-18T00:21:05.609Z,18.44
2019-06-18T00:22:04.243Z,18.52
2019-06-18T00:23:04.419Z,18.49
2019-06-18T00:24:05.207Z,18.52
2019-06-18T00:25:03.850Z,18.45
2019-06-18T00:26:03.697Z,18.37
2019-06-18T00:27:03.842Z,18.43
2019-06-18T00:28:04.251Z,18.44
2019-06-18T00:29:03.598Z,18.38
2019-06-18T00:30:04.231Z,18.4
2019-06-18T00:31:05.838Z,18.38
2019-06-18T00:32:05.806Z,18.38
2019-06-18T00:33:05.171Z,18.34
2019-06-18T00:34:03.603Z,18.34
2019-06-18T00:35:05.291Z,18.38
2019-06-18T00:36:03.404Z,18.44
2019-06-18T00:37:05.685Z,18.35
2019-06-18T00:38:04.952Z,18.37
2019-06-18T00:39:02.937Z,18.4
2019-06-18T00:40:02.662Z,18.44
2019-06-18T00:41:02.677Z,18.4
2019-06-18T00:42:03.519Z,18.45
2019-06-18T00:43:02.657Z,18.35
2019-06-18T00:44:02.673Z,18.34
2019-06-18T00:45:02.667Z,18.41
2019-06-18T00:46:10.363Z,18.41
2019-06-18T00:47:02.906Z,18.45
2019-06-18T00:48:02.461Z,18.35
2019-06-18T00:49:02.922Z,18.4
2019-06-18T00:50:02.920Z,18.34
2019-06-18T00:51:03.206Z,18.29
2019-06-18T00:52:02.519Z,18.29
2019-06-18T00:53:02.761Z,18.25
2019-06-18T00:54:02.421Z,18.15
2019-06-18T00:55:04.294Z,18.16
2019-06-18T00:56:02.722Z,18.04
2019-06-18T00:57:03.176Z,18.08
2019-06-18T00:58:02.671Z,18.03
2019-06-18T00:59:02.933Z,18.05
2019-06-18T01:00:02.684Z,18.05
2019-06-18T01:01:02.669Z,18.04
2019-06-18T01:02:02.416Z,18.04
2019-06-18T01:03:02.690Z,18.19
2019-06-18T01:04:02.659Z,18.16
2019-06-18T01:05:07.331Z,18.16
2019-06-18T01:06:02.660Z,18.18
2019-06-18T01:07:02.696Z,18.18
2019-06-18T01:08:02.679Z,18.19
2019-06-18T01:09:02.913Z,18.15
2019-06-18T01:10:02.657Z,18.23
2019-06-18T01:11:02.665Z,18.23
2019-06-18T01:12:02.720Z,18.22
2019-06-18T01:13:02.405Z,18.15
2019-06-18T01:14:02.922Z,18.13
2019-06-18T01:15:02.683Z,18.1
2019-06-18T01:16:23.957Z,18.19
2019-06-18T01:17:02.933Z,18.03
2019-06-18T01:18:02.652Z,18.1
2019-06-18T01:19:02.669Z,18.03
2019-06-18T01:20:02.949Z,18.05
2019-06-18T01:21:02.910Z,18.07
2019-06-18T01:22:02.943Z,18.01
2019-06-18T01:23:02.913Z,18.05
2019-06-18T01:24:09.288Z,17.98
2019-06-18T01:25:03.229Z,18.08
2019-06-18T01:26:04.784Z,18.03
2019-06-18T01:27:05.134Z,18.05
2019-06-18T01:28:05.030Z,18
2019-06-18T01:29:04.887Z,17.95
2019-06-18T01:30:05.681Z,17.97
2019-06-18T01:31:04.894Z,17.92
2019-06-18T01:32:03.247Z,17.94
2019-06-18T01:33:03.931Z,17.94
2019-06-18T01:34:05.454Z,17.97
2019-06-18T01:35:05.090Z,17.92
2019-06-18T01:36:05.504Z,17.85
2019-06-18T01:37:05.092Z,17.86
2019-06-18T01:38:05.226Z,17.78
2019-06-18T01:39:04.668Z,17.79
2019-06-18T01:40:05.624Z,17.85
2019-06-18T01:41:05.065Z,17.78
2019-06-18T01:42:04.300Z,17.8
2019-06-18T01:43:03.489Z,17.86
2019-06-18T01:44:05.501Z,17.95
2019-06-18T01:45:05.605Z,17.78
2019-06-18T01:46:05.258Z,17.82
2019-06-18T01:47:04.984Z,17.85
2019-06-18T01:48:04.837Z,17.83
2019-06-18T01:49:05.513Z,17.79
2019-06-18T01:50:03.804Z,17.76
2019-06-18T01:51:05.040Z,17.86
2019-06-18T01:52:05.130Z,17.82
2019-06-18T01:53:03.362Z,17.78
2019-06-18T01:54:04.764Z,17.76
2019-06-18T01:55:05.085Z,17.74
2019-06-18T01:56:05.127Z,17.68
2019-06-18T01:57:04.941Z,17.6
2019-06-18T01:58:05.253Z,17.59
2019-06-18T01:59:04.770Z,17.63
2019-06-18T02:00:04.405Z,17.63
2019-06-18T02:01:05.117Z,17.6
2019-06-18T02:02:04.871Z,17.54
2019-06-18T02:03:05.234Z,17.52
2019-06-18T02:04:05.680Z,17.48
2019-06-18T02:05:05.736Z,17.51
2019-06-18T02:06:05.437Z,17.52
2019-06-18T02:07:05.026Z,17.48
2019-06-18T02:08:05.512Z,17.48
2019-06-18T02:09:05.541Z,17.51
2019-06-18T02:10:05.073Z,17.38
2019-06-18T02:11:05.549Z,17.41
2019-06-18T02:12:05.888Z,17.44
2019-06-18T02:13:03.648Z,17.41
2019-06-18T02:14:05.915Z,17.36
2019-06-18T02:15:04.973Z,17.31
2019-06-18T02:16:04.454Z,17.34
2019-06-18T02:17:05.592Z,17.36
2019-06-18T02:18:05.996Z,17.34
2019-06-18T02:19:05.544Z,17.42
2019-06-18T02:20:05.274Z,17.45
2019-06-18T02:21:04.583Z,17.59
2019-06-18T02:22:09.144Z,17.56
2019-06-18T02:23:04.986Z,17.63
2019-06-18T02:24:05.198Z,17.56
2019-06-18T02:25:05.451Z,17.56
2019-06-18T02:26:04.943Z,17.49
2019-06-18T02:27:05.443Z,17.45
2019-06-18T02:28:03.112Z,17.54
2019-06-18T02:29:04.823Z,17.51
2019-06-18T02:30:08.104Z,17.48
2019-06-18T02:31:06.021Z,17.39
2019-06-18T02:32:06.720Z,17.45
2019-06-18T02:33:07.937Z,17.34
2019-06-18T02:34:06.163Z,17.33
2019-06-18T02:35:05.449Z,17.38
2019-06-18T02:36:05.516Z,17.36
2019-06-18T02:37:05.015Z,17.31
2019-06-18T02:38:05.229Z,17.29
2019-06-18T02:39:04.998Z,17.31
2019-06-18T02:40:04.056Z,17.31
2019-06-18T02:41:05.592Z,17.33
2019-06-18T02:42:05.613Z,17.33
2019-06-18T02:43:05.880Z,17.39
2019-06-18T02:44:04.883Z,17.3
2019-06-18T02:45:06.024Z,17.29
2019-06-18T02:46:05.754Z,17.41
2019-06-18T02:47:18.509Z,17.48
2019-06-18T02:48:03.483Z,17.48
2019-06-18T02:49:05.210Z,17.54
2019-06-18T02:50:05.797Z,17.56
2019-06-18T02:51:04.712Z,17.64
2019-06-18T02:52:05.853Z,17.57
2019-06-18T02:53:05.336Z,17.59
2019-06-18T02:54:05.235Z,17.63
2019-06-18T02:55:05.031Z,17.64
2019-06-18T02:56:05.222Z,17.6
2019-06-18T02:57:05.406Z,17.64
2019-06-18T02:58:03.471Z,17.6
2019-06-18T02:59:05.578Z,17.59
2019-06-18T03:00:04.382Z,17.65
2019-06-18T03:01:04.880Z,17.6
2019-06-18T03:02:05.595Z,17.63
2019-06-18T03:03:05.680Z,17.68
2019-06-18T03:04:04.770Z,17.67
2019-06-18T03:05:05.493Z,17.71
2019-06-18T03:06:04.861Z,17.74
2019-06-18T03:07:05.484Z,17.76
2019-06-18T03:08:04.739Z,17.76
2019-06-18T03:09:05.087Z,17.72
2019-06-18T03:10:05.557Z,17.68
2019-06-18T03:11:05.328Z,17.78
2019-06-18T03:12:05.381Z,17.72
2019-06-18T03:13:04.858Z,17.74
2019-06-18T03:14:07.550Z,17.72
2019-06-18T03:15:06.016Z,17.72
2019-06-18T03:16:04.857Z,17.76
2019-06-18T03:17:05.407Z,17.76
2019-06-18T03:18:05.018Z,17.71
2019-06-18T03:19:04.846Z,17.71
2019-06-18T03:20:05.967Z,17.71
2019-06-18T03:21:05.636Z,17.74
2019-06-18T03:22:06.066Z,17.74
2019-06-18T03:23:05.404Z,17.76
2019-06-18T03:24:04.987Z,17.72
2019-06-18T03:25:05.500Z,17.74
2019-06-18T03:26:05.575Z,17.71
2019-06-18T03:27:05.149Z,17.72
2019-06-18T03:28:05.617Z,17.7
2019-06-18T03:29:04.856Z,17.76
2019-06-18T03:30:06.116Z,17.68
2019-06-18T03:31:06.851Z,17.71
2019-06-18T03:32:06.785Z,17.7
2019-06-18T03:33:06.950Z,17.63
2019-06-18T03:34:08.111Z,17.57
2019-06-18T03:35:03.758Z,17.74
2019-06-18T03:36:05.029Z,17.6
2019-06-18T03:37:04.926Z,17.64
2019-06-18T03:38:05.804Z,17.63
2019-06-18T03:39:04.902Z,17.59
2019-06-18T03:40:05.021Z,17.57
2019-06-18T03:41:04.956Z,17.64
2019-06-18T03:42:04.817Z,17.7
2019-06-18T03:43:04.405Z,17.72
2019-06-18T03:44:05.463Z,17.78
2019-06-18T03:45:05.312Z,17.76
2019-06-18T03:46:03.858Z,17.78
2019-06-18T03:47:05.549Z,17.78
2019-06-18T03:48:05.108Z,17.79
2019-06-18T03:49:04.985Z,17.76
2019-06-18T03:50:04.883Z,17.94
2019-06-18T03:51:05.128Z,17.92
2019-06-18T03:52:05.551Z,18.03
2019-06-18T03:53:05.947Z,18.2
2019-06-18T03:54:05.540Z,18.34
2019-06-18T03:55:06.139Z,18.5
2019-06-18T03:56:05.228Z,18.59
2019-06-18T03:57:05.891Z,18.77
2019-06-18T03:58:05.636Z,18.9
2019-06-18T03:59:04.768Z,19
2019-06-18T04:00:05.415Z,19.15
2019-06-18T04:01:03.470Z,19.24
2019-06-18T04:02:05.174Z,19.39
2019-06-18T04:03:05.635Z,19.54
2019-06-18T04:04:05.056Z,19.62
2019-06-18T04:05:06.092Z,19.67
2019-06-18T04:06:06.086Z,19.82
2019-06-18T04:07:05.264Z,19.92
2019-06-18T04:08:04.659Z,20.03
2019-06-18T04:09:04.713Z,20.04
2019-06-18T04:10:04.684Z,20.13
2019-06-18T04:11:05.329Z,20.18
2019-06-18T04:12:05.413Z,20.26
2019-06-18T04:13:05.130Z,20.28
2019-06-18T04:14:05.329Z,20.37
2019-06-18T04:15:03.251Z,20.52
2019-06-18T04:16:05.239Z,20.6
2019-06-18T04:17:05.270Z,20.7
2019-06-18T04:18:12.892Z,20.67
2019-06-18T04:19:05.683Z,20.7
2019-06-18T04:20:05.572Z,20.84
2019-06-18T04:21:05.412Z,20.88
2019-06-18T04:22:05.897Z,20.88
2019-06-18T04:23:04.994Z,21.03
2019-06-18T04:24:05.436Z,21.03
2019-06-18T04:25:05.876Z,20.99
2019-06-18T04:26:04.957Z,21.11
2019-06-18T04:27:05.786Z,21.17
2019-06-18T04:28:05.115Z,21.24
2019-06-18T04:29:05.813Z,21.37
2019-06-18T04:30:04.785Z,21.48
2019-06-18T04:31:05.013Z,21.48
2019-06-18T04:32:05.067Z,21.54
2019-06-18T04:33:05.461Z,21.57
2019-06-18T04:34:05.302Z,21.75
2019-06-18T04:35:05.403Z,21.82
2019-06-18T04:36:05.314Z,21.93
2019-06-18T04:37:05.871Z,21.93
2019-06-18T04:38:04.835Z,22.11
2019-06-18T04:39:05.266Z,22.11
2019-06-18T04:40:06.243Z,22.11
2019-06-18T04:41:05.862Z,22.11
2019-06-18T04:42:03.831Z,22.29
2019-06-18T04:43:05.059Z,22.26
2019-06-18T04:44:06.126Z,22.33
2019-06-18T04:45:05.555Z,22.5
2019-06-18T04:46:05.313Z,22.63
2019-06-18T04:47:05.370Z,22.59
2019-06-18T04:48:26.879Z,22.72
2019-06-18T04:49:03.599Z,22.78
2019-06-18T04:50:05.089Z,22.91
2019-06-18T04:51:05.369Z,22.87
2019-06-18T04:52:05.673Z,22.87
2019-06-18T04:53:06.410Z,22.9
2019-06-18T04:54:05.558Z,23.05
2019-06-18T04:55:05.828Z,22.99
2019-06-18T04:56:04.838Z,22.91
2019-06-18T04:57:05.698Z,22.96
2019-06-18T04:58:05.794Z,23.18
2019-06-18T04:59:05.557Z,23.25
2019-06-18T05:00:06.424Z,23.39
2019-06-18T05:01:05.551Z,23.44
2019-06-18T05:02:03.551Z,23.61
2019-06-18T05:03:05.204Z,23.78
2019-06-18T05:04:05.661Z,23.77
2019-06-18T05:05:06.011Z,23.93
2019-06-18T05:06:06.550Z,24.01
2019-06-18T05:07:05.163Z,24.18
2019-06-18T05:08:06.279Z,24.47
2019-06-18T05:09:05.529Z,24.66
2019-06-18T05:10:05.820Z,24.77
2019-06-18T05:11:05.244Z,24.93
2019-06-18T05:12:05.987Z,24.93
2019-06-18T05:13:05.379Z,25.01
2019-06-18T05:14:04.928Z,24.91
2019-06-18T05:15:05.114Z,25.04
2019-06-18T05:16:05.065Z,25.01
2019-06-18T05:17:05.326Z,24.8
2019-06-18T05:18:05.608Z,24.55
2019-06-18T05:19:06.428Z,24.33
2019-06-18T05:20:05.315Z,24.11
2019-06-18T05:21:05.291Z,23.95
2019-06-18T05:22:05.326Z,23.63
2019-06-18T05:23:05.275Z,23.5
2019-06-18T05:24:05.419Z,23.36
2019-06-18T05:25:05.115Z,23.34
2019-06-18T05:26:05.828Z,23.43
2019-06-18T05:27:05.372Z,23.66
2019-06-18T05:28:05.653Z,23.83
2019-06-18T05:29:05.088Z,24.11
2019-06-18T05:30:06.421Z,24.43
2019-06-18T05:31:05.569Z,24.63
2019-06-18T05:32:05.506Z,24.92
2019-06-18T05:33:05.416Z,25.06
2019-06-18T05:34:05.255Z,25.21
2019-06-18T05:35:06.088Z,25.26
2019-06-18T05:36:05.630Z,25.47
2019-06-18T05:37:05.831Z,25.63
2019-06-18T05:38:07.246Z,25.9
2019-06-18T05:39:05.351Z,26.07
2019-06-18T05:40:06.297Z,26.23
2019-06-18T05:41:05.724Z,26.38
2019-06-18T05:42:03.899Z,26.43
2019-06-18T05:43:06.601Z,26.48
2019-06-18T05:44:05.354Z,26.44
2019-06-18T05:45:04.989Z,26.58
2019-06-18T05:46:06.423Z,26.88
2019-06-18T05:47:05.125Z,26.97
2019-06-18T05:48:06.411Z,27.1
2019-06-18T05:49:05.969Z,27.26
2019-06-18T05:50:05.753Z,27.25
2019-06-18T05:51:05.874Z,27.25
2019-06-18T05:52:06.601Z,27.4
2019-06-18T05:53:05.814Z,27.52
2019-06-18T05:54:05.110Z,27.55
2019-06-18T05:55:06.528Z,27.64
2019-06-18T05:56:05.370Z,27.8
2019-06-18T05:57:05.833Z,27.89
2019-06-18T05:58:04.903Z,27.82
2019-06-18T05:59:05.972Z,27.93
2019-06-18T06:00:06.141Z,27.86
2019-06-18T06:01:06.167Z,27.77
2019-06-18T06:02:06.406Z,27.92
2019-06-18T06:03:05.126Z,28.02
2019-06-18T06:04:05.041Z,28.08
2019-06-18T06:05:05.664Z,28.22
2019-06-18T06:06:05.411Z,28.3
2019-06-18T06:07:06.673Z,28.27
2019-06-18T06:08:05.812Z,28.33
2019-06-18T06:09:05.222Z,28.41
2019-06-18T06:10:04.861Z,28.47
2019-06-18T06:11:05.708Z,28.57
2019-06-18T06:12:05.800Z,28.64
2019-06-18T06:13:04.706Z,28.7
2019-06-18T06:14:05.662Z,28.79
2019-06-18T06:15:05.283Z,28.96
2019-06-18T06:16:06.273Z,29.08
2019-06-18T06:17:05.355Z,29.14
2019-06-18T06:18:04.827Z,29.13
2019-06-18T06:19:22.382Z,29.27
2019-06-18T06:20:05.841Z,29.42
2019-06-18T06:21:04.923Z,29.49
2019-06-18T06:22:05.810Z,29.53
2019-06-18T06:23:05.779Z,29.57
2019-06-18T06:24:05.427Z,29.81
2019-06-18T06:25:05.541Z,29.9
2019-06-18T06:26:06.139Z,29.95
2019-06-18T06:27:07.237Z,30.13
2019-06-18T06:28:05.527Z,30.15
2019-06-18T06:29:05.676Z,29.97
2019-06-18T06:30:06.214Z,29.49
2019-06-18T06:31:05.378Z,29.16
2019-06-18T06:32:05.255Z,29.29
2019-06-18T06:33:05.990Z,29.47
2019-06-18T06:34:05.489Z,29.27
2019-06-18T06:35:05.728Z,29.31
2019-06-18T06:36:04.805Z,29.49
2019-06-18T06:37:06.271Z,29.66
2019-06-18T06:38:06.328Z,29.91
2019-06-18T06:39:06.346Z,29.97
2019-06-18T06:40:06.427Z,30.08
2019-06-18T06:41:05.724Z,30.35
2019-06-18T06:42:05.583Z,30.4
2019-06-18T06:43:04.772Z,30.27
2019-06-18T06:44:05.475Z,30.18
2019-06-18T06:45:06.411Z,29.78
2019-06-18T06:46:06.536Z,29.9
2019-06-18T06:47:05.619Z,29.97
2019-06-18T06:48:06.241Z,30.28
2019-06-18T06:49:05.702Z,30.44
2019-06-18T06:50:06.718Z,30.62
2019-06-18T06:51:05.488Z,30.85
2019-06-18T06:52:04.540Z,31.06
2019-06-18T06:53:05.964Z,31.44
2019-06-18T06:54:05.778Z,31.62
2019-06-18T06:55:05.986Z,31.36
2019-06-18T06:56:04.843Z,31.37
2019-06-18T06:57:05.681Z,31.62
2019-06-18T06:58:29.383Z,31.85
2019-06-18T06:59:05.618Z,31.73
2019-06-18T07:00:06.549Z,31.62
2019-06-18T07:01:05.904Z,31.4
2019-06-18T07:02:04.880Z,31.18
2019-06-18T07:03:05.013Z,31.17
2019-06-18T07:04:05.725Z,31.34
2019-06-18T07:05:06.129Z,31.4
2019-06-18T07:06:05.698Z,31.44
2019-06-18T07:07:05.392Z,31.52
2019-06-18T07:08:05.569Z,31.52
2019-06-18T07:09:05.745Z,31.54
2019-06-18T07:10:12.808Z,31.47
2019-06-18T07:11:06.115Z,31.7
2019-06-18T07:12:04.938Z,31.92
2019-06-18T07:13:05.320Z,32.07
2019-06-18T07:14:05.399Z,32.16
2019-06-18T07:15:05.134Z,32.43
2019-06-18T07:16:05.699Z,32.71
2019-06-18T07:17:06.854Z,32.73
2019-06-18T07:18:05.719Z,32.78
2019-06-18T07:19:05.015Z,32.77
2019-06-18T07:20:05.002Z,32.9
2019-06-18T07:21:04.731Z,32.92
2019-06-18T07:22:08.889Z,32.77
2019-06-18T07:23:05.822Z,32.58
2019-06-18T07:24:05.677Z,32.4
2019-06-18T07:25:05.241Z,32.3
2019-06-18T07:26:04.707Z,32.3
2019-06-18T07:27:05.316Z,32.34
2019-06-18T07:28:05.164Z,32.59
2019-06-18T07:29:05.661Z,32.71
2019-06-18T07:30:07.013Z,33.07
2019-06-18T07:31:05.499Z,33.39
2019-06-18T07:32:04.936Z,33.62
2019-06-18T07:33:05.705Z,33.62
2019-06-18T07:34:07.379Z,33.86
2019-06-18T07:35:05.185Z,34.03
2019-06-18T07:36:06.233Z,34.06
2019-06-18T07:37:05.416Z,34.39
2019-06-18T07:38:05.820Z,34.58
2019-06-18T07:39:05.452Z,34.54
2019-06-18T07:40:05.606Z,34.32
2019-06-18T07:41:05.324Z,34.17
2019-06-18T07:42:05.437Z,33.58
2019-06-18T07:43:05.509Z,33.36
2019-06-18T07:44:05.060Z,33.22
2019-06-18T07:45:07.218Z,33.11
2019-06-18T07:46:04.762Z,33.04
2019-06-18T07:47:06.355Z,32.77
2019-06-18T07:48:04.867Z,32.77
2019-06-18T07:49:05.321Z,32.73
2019-06-18T07:50:24.653Z,33.04
2019-06-18T07:51:06.221Z,33.2
2019-06-18T07:52:05.539Z,33.43
2019-06-18T07:53:05.303Z,33.61
2019-06-18T07:54:06.393Z,33.81
2019-06-18T07:55:05.995Z,34.18
2019-06-18T07:56:05.278Z,34.2
2019-06-18T07:57:05.989Z,34.43
2019-06-18T07:58:06.534Z,34.42
2019-06-18T07:59:04.717Z,34.4
2019-06-18T08:00:07.689Z,34.33
2019-06-18T08:01:07.531Z,34.08
2019-06-18T08:02:05.922Z,33.76
2019-06-18T08:03:05.949Z,33.49
2019-06-18T08:04:05.679Z,33.31
2019-06-18T08:05:06.160Z,33.08
2019-06-18T08:06:06.274Z,33.04
2019-06-18T08:07:09.919Z,33.04
2019-06-18T08:08:07.327Z,33.15
2019-06-18T08:09:05.831Z,33.14
2019-06-18T08:10:06.044Z,33.19
2019-06-18T08:11:07.156Z,33.22
2019-06-18T08:12:06.009Z,33.3
2019-06-18T08:13:07.269Z,33.34
2019-06-18T08:14:06.600Z,33.61
2019-06-18T08:15:06.793Z,33.67
2019-06-18T08:16:05.121Z,33.95
2019-06-18T08:17:05.991Z,33.99
2019-06-18T08:18:07.854Z,34.08
2019-06-18T08:19:05.588Z,34.32
2019-06-18T08:20:06.623Z,34.11
2019-06-18T08:21:05.667Z,33.89
2019-06-18T08:22:23.087Z,34.02
2019-06-18T08:23:06.517Z,34.24
2019-06-18T08:24:06.065Z,34.18
2019-06-18T08:25:06.138Z,34.05
2019-06-18T08:26:05.393Z,34.16
2019-06-18T08:27:06.992Z,34.16
2019-06-18T08:28:05.921Z,34.1
2019-06-18T08:29:07.386Z,34.11
2019-06-18T08:30:05.829Z,34.18
2019-06-18T08:31:06.978Z,34.18
2019-06-18T08:32:09.497Z,34.03
2019-06-18T08:33:06.826Z,33.86
2019-06-18T08:34:05.950Z,33.9
2019-06-18T08:35:06.894Z,34.03
2019-06-18T08:36:07.378Z,34.1
2019-06-18T08:37:05.886Z,34.05
2019-06-18T08:38:06.798Z,33.98
2019-06-18T08:39:05.461Z,33.96
2019-06-18T08:40:06.587Z,34.1
2019-06-18T08:41:06.100Z,34.1
2019-06-18T08:42:07.595Z,34.02
2019-06-18T08:43:06.259Z,34.03
2019-06-18T08:44:05.921Z,33.94
2019-06-18T08:45:06.279Z,33.45
2019-06-18T08:46:07.442Z,33.36
2019-06-18T08:47:07.659Z,33.23
2019-06-18T08:48:07.641Z,33.3
2019-06-18T08:49:07.618Z,33.42
2019-06-18T08:50:07.474Z,33.31
2019-06-18T08:51:07.206Z,33.32
2019-06-18T08:52:07.509Z,33.23
2019-06-18T08:53:07.200Z,33.36
2019-06-18T08:54:07.497Z,33.62
2019-06-18T08:55:07.071Z,33.8
2019-06-18T08:56:05.824Z,33.94
2019-06-18T08:57:06.965Z,33.86
2019-06-18T08:58:06.763Z,33.58
2019-06-18T08:59:07.397Z,33.04
2019-06-18T09:00:06.113Z,32.63
2019-06-18T09:01:06.110Z,32.22
2019-06-18T09:02:07.391Z,31.61
2019-06-18T09:03:29.008Z,30.91
2019-06-18T09:04:06.385Z,30.63
2019-06-18T09:05:07.286Z,30.37
2019-06-18T09:06:08.181Z,30.02
2019-06-18T09:07:07.736Z,29.72
2019-06-18T09:08:07.399Z,29.49
2019-06-18T09:09:07.546Z,29.23
2019-06-18T09:10:07.146Z,29.04
2019-06-18T09:11:06.519Z,28.98
2019-06-18T09:12:05.942Z,28.81
2019-06-18T09:13:07.731Z,28.86
2019-06-18T09:14:07.190Z,28.98
2019-06-18T09:15:07.642Z,29.1
2019-06-18T09:16:08.747Z,29.1
2019-06-18T09:17:07.718Z,29.23
2019-06-18T09:18:06.235Z,29.41
2019-06-18T09:19:07.545Z,29.51
2019-06-18T09:20:06.441Z,29.56
2019-06-18T09:21:15.556Z,29.42
2019-06-18T09:22:08.215Z,29.36
2019-06-18T09:23:08.034Z,29.38
2019-06-18T09:24:06.057Z,29.45
2019-06-18T09:25:07.431Z,29.47
2019-06-18T09:26:06.203Z,29.35
2019-06-18T09:27:07.550Z,29.24
2019-06-18T09:28:08.538Z,29.2
2019-06-18T09:29:07.319Z,29.26
2019-06-18T09:30:08.343Z,29.22
2019-06-18T09:31:07.261Z,29.12
2019-06-18T09:32:08.180Z,29.1
2019-06-18T09:33:07.246Z,29.12
2019-06-18T09:34:07.275Z,29.16
2019-06-18T09:35:08.035Z,29.1
2019-06-18T09:36:08.059Z,28.86
2019-06-18T09:37:08.229Z,28.74
2019-06-18T09:38:09.747Z,28.54
2019-06-18T09:39:07.557Z,28.64
2019-06-18T09:40:07.371Z,28.57
2019-06-18T09:41:06.859Z,28.64
2019-06-18T09:42:07.302Z,28.72
2019-06-18T09:43:07.154Z,28.85
2019-06-18T09:44:07.732Z,28.86
2019-06-18T09:45:08.154Z,28.78
2019-06-18T09:46:07.724Z,28.72
2019-06-18T09:47:07.834Z,28.59
2019-06-18T09:48:08.228Z,28.39
2019-06-18T09:49:07.805Z,28.42
2019-06-18T09:50:07.836Z,28.26
2019-06-18T09:51:26.967Z,28.33
2019-06-18T09:52:06.969Z,28.44
2019-06-18T09:53:07.476Z,28.57
2019-06-18T09:54:07.624Z,28.76
2019-06-18T09:55:08.167Z,28.78
2019-06-18T09:56:07.022Z,28.91
2019-06-18T09:57:08.141Z,28.86
2019-06-18T09:58:08.152Z,28.96
2019-06-18T09:59:07.635Z,28.91
2019-06-18T10:00:07.265Z,28.86
2019-06-18T10:01:05.304Z,28.81
2019-06-18T10:02:07.417Z,28.96
2019-06-18T10:03:07.654Z,29.12
2019-06-18T10:04:07.474Z,29.16
2019-06-18T10:05:07.796Z,29.24
2019-06-18T10:06:08.171Z,29.19
2019-06-18T10:07:07.273Z,29.05
2019-06-18T10:08:05.084Z,28.97
2019-06-18T10:09:07.894Z,28.69
2019-06-18T10:10:07.718Z,28.63
2019-06-18T10:11:07.795Z,28.45
2019-06-18T10:12:12.617Z,28.51
2019-06-18T10:13:08.252Z,28.42
2019-06-18T10:14:07.558Z,28.45
2019-06-18T10:15:08.432Z,28.45
2019-06-18T10:16:08.115Z,28.51
2019-06-18T10:17:08.652Z,28.62
2019-06-18T10:18:08.420Z,28.81
2019-06-18T10:19:08.463Z,28.94
2019-06-18T10:20:07.968Z,29.1
2019-06-18T10:21:07.383Z,29.22
2019-06-18T10:22:07.873Z,29.42
2019-06-18T10:23:07.837Z,29.71
2019-06-18T10:24:07.025Z,29.78
2019-06-18T10:25:07.940Z,29.82
2019-06-18T10:26:07.796Z,29.75
2019-06-18T10:27:07.221Z,29.68
2019-06-18T10:28:05.206Z,29.63
2019-06-18T10:29:57.566Z,29.69
2019-06-18T10:30:16.643Z,29.69
2019-06-18T10:31:16.009Z,29.84
2019-06-18T10:32:14.933Z,29.94
2019-06-18T10:33:14.973Z,30.05
2019-06-18T10:34:15.476Z,30.13
2019-06-18T10:35:15.706Z,30.19
2019-06-18T10:36:13.616Z,30.3
2019-06-18T10:37:14.098Z,30.34
2019-06-18T10:38:15.856Z,30.34
2019-06-18T10:39:15.754Z,30.28
2019-06-18T10:40:16.146Z,30.23
2019-06-18T10:41:18.545Z,30.15
2019-06-18T10:42:15.185Z,29.97
2019-06-18T10:43:15.945Z,29.9
2019-06-18T10:44:15.624Z,29.87
2019-06-18T10:45:16.336Z,29.93
2019-06-18T10:46:15.224Z,29.87
2019-06-18T10:47:14.193Z,29.86
2019-06-18T10:48:15.179Z,29.88
2019-06-18T10:49:25.255Z,29.91
2019-06-18T10:50:14.654Z,29.86
2019-06-18T10:51:15.072Z,29.84
2019-06-18T10:52:15.203Z,29.84
2019-06-18T10:53:17.562Z,29.86
2019-06-18T10:54:17.305Z,29.94
2019-06-18T10:55:15.515Z,29.95
2019-06-18T10:56:15.269Z,29.88
2019-06-18T10:57:15.768Z,29.75
2019-06-18T10:58:14.930Z,29.68
2019-06-18T10:59:14.074Z,29.73
2019-06-18T11:00:16.165Z,29.72
2019-06-18T11:01:14.022Z,29.75
2019-06-18T11:02:16.225Z,29.82
2019-06-18T11:03:14.024Z,29.84
2019-06-18T11:04:15.461Z,29.98
2019-06-18T11:05:15.154Z,29.93
2019-06-18T11:06:15.889Z,30
2019-06-18T11:07:16.942Z,29.95
2019-06-18T11:08:16.114Z,29.98
2019-06-18T11:09:15.235Z,30.02
2019-06-18T11:10:15.808Z,29.94
2019-06-18T11:11:15.685Z,29.75
2019-06-18T11:12:15.872Z,29.71
2019-06-18T11:13:15.338Z,29.69
2019-06-18T11:14:22.792Z,29.49
2019-06-18T11:15:15.681Z,29.45
2019-06-18T11:16:17.243Z,29.42
2019-06-18T11:17:15.558Z,29.49
2019-06-18T11:18:13.842Z,29.6
2019-06-18T11:19:15.468Z,29.73
2019-06-18T11:20:15.497Z,29.88
2019-06-18T11:21:16.820Z,29.82
2019-06-18T11:22:18.713Z,29.84
2019-06-18T11:23:27.658Z,29.82
2019-06-18T11:24:15.775Z,29.9
2019-06-18T11:25:17.317Z,29.78
2019-06-18T11:26:16.140Z,29.79
2019-06-18T11:27:16.286Z,29.81
2019-06-18T11:28:17.310Z,29.88
2019-06-18T11:29:14.159Z,29.9
2019-06-18T11:30:15.941Z,29.68
2019-06-18T11:31:16.539Z,29.63
2019-06-18T11:32:16.007Z,29.56
2019-06-18T11:33:15.406Z,29.59
2019-06-18T11:34:16.662Z,29.51
2019-06-18T11:35:15.336Z,29.73
2019-06-18T11:36:14.452Z,29.66
2019-06-18T11:37:14.442Z,29.81
2019-06-18T11:38:17.388Z,29.93
2019-06-18T11:39:14.446Z,30
2019-06-18T11:40:14.486Z,30.1
2019-06-18T11:41:15.873Z,30.16
2019-06-18T11:42:15.480Z,30.27
2019-06-18T11:43:15.642Z,30.37
2019-06-18T11:44:15.223Z,30.32
2019-06-18T11:45:15.715Z,30.31
2019-06-18T11:46:15.919Z,30.16
2019-06-18T11:47:17.000Z,30.12
2019-06-18T11:48:17.188Z,30.08
2019-06-18T11:49:18.024Z,30.08
2019-06-18T11:50:17.054Z,30
2019-06-18T11:51:15.472Z,30.1
2019-06-18T11:52:35.300Z,29.97
2019-06-18T11:53:17.052Z,29.94
2019-06-18T11:54:17.470Z,29.93
2019-06-18T11:55:17.829Z,29.9
2019-06-18T11:56:15.485Z,29.81
2019-06-18T11:57:14.550Z,29.71
2019-06-18T11:58:15.198Z,29.63
2019-06-18T11:59:15.534Z,29.6
2019-06-18T12:00:17.591Z,29.65
2019-06-18T12:01:16.752Z,29.63
2019-06-18T12:02:17.223Z,29.51
2019-06-18T12:03:17.570Z,29.53
2019-06-18T12:04:16.240Z,29.56
2019-06-18T12:05:15.748Z,29.44
2019-06-18T12:06:17.557Z,29.47
2019-06-18T12:07:14.360Z,29.51
2019-06-18T12:08:16.007Z,29.56
2019-06-18T12:09:15.545Z,29.6
2019-06-18T12:10:15.742Z,29.69
2019-06-18T12:11:16.058Z,29.69
2019-06-18T12:12:17.509Z,29.76
2019-06-18T12:13:14.638Z,29.76
2019-06-18T12:14:17.209Z,29.93
2019-06-18T12:15:17.687Z,29.97
2019-06-18T12:16:15.538Z,29.98
2019-06-18T12:17:16.086Z,29.93
2019-06-18T12:18:16.244Z,29.93
2019-06-18T12:19:17.767Z,29.88
2019-06-18T12:20:14.691Z,29.76
2019-06-18T12:21:14.427Z,29.69
2019-06-18T12:22:16.194Z,29.44
2019-06-18T12:23:18.989Z,29.44
2019-06-18T12:24:15.663Z,29.41
2019-06-18T12:25:15.810Z,29.41
2019-06-18T12:26:17.061Z,29.44
2019-06-18T12:27:16.211Z,29.53
2019-06-18T12:28:17.428Z,29.68
2019-06-18T12:29:16.691Z,29.76
2019-06-18T12:30:16.018Z,29.94
2019-06-18T12:31:15.650Z,29.98
2019-06-18T12:32:17.460Z,29.97
2019-06-18T12:33:17.861Z,30.18
2019-06-18T12:34:18.822Z,30.28
2019-06-18T12:35:17.269Z,30.13
2019-06-18T12:36:17.632Z,30.15
2019-06-18T12:37:14.789Z,30.08
2019-06-18T12:38:16.525Z,30.13
2019-06-18T12:39:15.974Z,30.08
2019-06-18T12:40:15.967Z,30.13
2019-06-18T12:41:15.911Z,30.13
2019-06-18T12:42:17.483Z,30.19
2019-06-18T12:43:17.852Z,30.13
2019-06-18T12:44:15.645Z,30.13
2019-06-18T12:45:17.561Z,30.13
2019-06-18T12:46:17.178Z,30.27
2019-06-18T12:47:17.359Z,30.27
2019-06-18T12:48:17.933Z,30.43
2019-06-18T12:49:14.580Z,30.5
2019-06-18T12:50:16.373Z,30.37
2019-06-18T12:51:16.384Z,30.37
2019-06-18T12:52:17.918Z,30.44
2019-06-18T12:53:18.099Z,30.47
2019-06-18T12:54:18.059Z,30.4
2019-06-18T12:55:17.418Z,30.25